sensor_id;sensor_type;location;lat;lon;timestamp;pressure;altitude;pressure_sealevel;temperature;humidity
14041;BME280;7095;51.388;6.196;2023-12-20T14:50:58;51213.59;;;-145.32;100.00
14041;BME280;7095;51.388;6.196;2023-12-20T14:53:27;50665.31;;;-145.32;100.00
14041;BME280;7095;51.388;6.196;2023-12-20T14:55:56;50528.25;;;-145.32;100.00
14041;BME280;7095;51.388;6.196;2023-12-20T14:58:24;50276.00;;;-145.32;100.00
14041;BME280;7095;51.388;6.196;2023-12-20T15:00:53;50007.88;;;-145.32;100.00
14041;BME280;7095;51.388;6.196;2023-12-20T15:03:23;50186.63;;;-145.32;100.00
14041;BME280;7095;51.388;6.196;2023-12-20T15:05:51;50309.78;;;-145.32;100.00
14041;BME280;7095;51.388;6.196;2023-12-20T15:08:22;50156.84;;;-145.32;100.00
14041;BME280;7095;51.388;6.196;2023-12-20T15:10:50;50262.09;;;-145.32;100.00
14041;BME280;7095;51.388;6.196;2023-12-20T15:13:19;50236.28;;;-145.32;100.00
14041;BME280;7095;51.388;6.196;2023-12-20T15:15:48;50109.16;;;-145.32;100.00
14041;BME280;7095;51.388;6.196;2023-12-20T15:18:16;50107.19;;;-145.32;100.00
14041;BME280;7095;51.388;6.196;2023-12-20T15:20:45;50156.84;;;-145.32;100.00
14041;BME280;7095;51.388;6.196;2023-12-20T15:23:16;50142.94;;;-145.32;100.00
14041;BME280;7095;51.388;6.196;2023-12-20T15:25:46;50049.59;;;-145.32;100.00
14041;BME280;7095;51.388;6.196;2023-12-20T15:28:14;50005.91;;;-145.32;100.00
14041;BME280;7095;51.388;6.196;2023-12-20T15:30:43;49823.19;;;-145.32;100.00
14041;BME280;7095;51.388;6.196;2023-12-20T15:33:12;49539.22;;;-145.32;100.00
14041;BME280;7095;51.388;6.196;2023-12-20T15:35:41;49731.84;;;-145.32;100.00
14041;BME280;7095;51.388;6.196;2023-12-20T15:38:09;49910.56;;;-145.32;100.00
14041;BME280;7095;51.388;6.196;2023-12-20T15:40:38;49443.91;;;-145.32;100.00
14041;BME280;7095;51.388;6.196;2023-12-20T15:43:08;49576.94;;;-145.32;100.00
14041;BME280;7095;51.388;6.196;2023-12-20T15:45:37;49537.22;;;-145.32;100.00
14041;BME280;7095;51.388;6.196;2023-12-20T15:48:06;49507.44;;;-145.32;100.00
14041;BME280;7095;51.388;6.196;2023-12-20T15:50:36;49435.97;;;-145.32;100.00
14041;BME280;7095;51.388;6.196;2023-12-20T15:53:05;49306.91;;;-145.32;100.00
14041;BME280;7095;51.388;6.196;2023-12-20T15:55:34;49219.53;;;-145.32;100.00
14041;BME280;7095;51.388;6.196;2023-12-20T15:58:03;49120.25;;;-145.32;100.00
14041;BME280;7095;51.388;6.196;2023-12-20T16:00:33;49271.16;;;-145.32;100.00
14041;BME280;7095;51.388;6.196;2023-12-20T16:03:02;49013.03;;;-145.32;100.00
14041;BME280;7095;51.388;6.196;2023-12-20T16:05:31;49001.13;;;-145.32;100.00
14041;BME280;7095;51.388;6.196;2023-12-20T16:07:59;49062.69;;;-145.32;100.00
14041;BME280;7095;51.388;6.196;2023-12-20T16:10:28;48991.19;;;-145.32;100.00
14041;BME280;7095;51.388;6.196;2023-12-20T16:12:57;49084.50;;;-145.32;100.00
14041;BME280;7095;51.388;6.196;2023-12-20T16:15:25;48885.97;;;-145.32;100.00
14041;BME280;7095;51.388;6.196;2023-12-20T16:17:55;49114.28;;;-145.32;100.00
14041;BME280;7095;51.388;6.196;2023-12-20T16:20:24;48832.38;;;-145.32;100.00
14041;BME280;7095;51.388;6.196;2023-12-20T16:22:53;48993.19;;;-145.32;100.00
14041;BME280;7095;51.388;6.196;2023-12-20T16:25:22;48897.88;;;-145.32;100.00
14041;BME280;7095;51.388;6.196;2023-12-20T16:27:51;48484.94;;;-145.32;100.00
14041;BME280;7095;51.388;6.196;2023-12-20T16:30:20;48274.53;;;-145.32;100.00
14041;BME280;7095;51.388;6.196;2023-12-20T16:32:48;48175.28;;;-145.32;100.00
14041;BME280;7095;51.388;6.196;2023-12-20T16:35:19;48336.06;;;-145.32;100.00
14041;BME280;7095;51.388;6.196;2023-12-20T16:37:47;48306.31;;;-145.32;100.00
14041;BME280;7095;51.388;6.196;2023-12-20T16:40:16;48496.88;;;-145.32;100.00
14041;BME280;7095;51.388;6.196;2023-12-20T16:42:50;48381.72;;;-145.32;100.00
14041;BME280;7095;51.388;6.196;2023-12-20T16:45:20;48421.44;;;-145.32;100.00
14041;BME280;7095;51.388;6.196;2023-12-20T16:47:49;48369.81;;;-145.32;100.00
14041;BME280;7095;51.388;6.196;2023-12-20T16:50:18;48089.94;;;-145.32;100.00
14041;BME280;7095;51.388;6.196;2023-12-20T16:52:47;47820.00;;;-145.32;100.00
14041;BME280;7095;51.388;6.196;2023-12-20T16:55:18;47613.59;;;-145.32;100.00
14041;BME280;7095;51.388;6.196;2023-12-20T16:57:47;47738.63;;;-145.32;100.00
14041;BME280;7095;51.388;6.196;2023-12-20T17:00:17;47649.31;;;-145.32;100.00
14041;BME280;7095;51.388;6.196;2023-12-20T17:02:45;47831.91;;;-145.32;100.00
14041;BME280;7095;51.388;6.196;2023-12-20T17:05:14;47933.13;;;-145.32;100.00
14041;BME280;7095;51.388;6.196;2023-12-20T17:07:44;47548.09;;;-145.32;100.00
14041;BME280;7095;51.388;6.196;2023-12-20T17:10:13;47075.81;;;-145.32;100.00
14041;BME280;7095;51.388;6.196;2023-12-20T17:12:42;46643.28;;;-145.32;100.00
14041;BME280;7095;51.388;6.196;2023-12-20T17:15:11;46230.63;;;-145.32;100.00
14041;BME280;7095;51.388;6.196;2023-12-20T17:17:39;46206.81;;;-145.32;100.00
14041;BME280;7095;51.388;6.196;2023-12-20T17:20:11;46183.00;;;-145.32;100.00
14041;BME280;7095;51.388;6.196;2023-12-20T17:22:44;46089.78;;;-145.32;100.00
14041;BME280;7095;51.388;6.196;2023-12-20T17:25:12;45893.38;;;-145.32;100.00
14041;BME280;7095;51.388;6.196;2023-12-20T17:27:42;45939.00;;;-145.32;100.00
14041;BME280;7095;51.388;6.196;2023-12-20T17:30:13;46063.97;;;-145.32;100.00
14041;BME280;7095;51.388;6.196;2023-12-20T17:32:41;46032.25;;;-145.32;100.00
14041;BME280;7095;51.388;6.196;2023-12-20T17:35:17;45925.13;;;-145.32;100.00
14041;BME280;7095;51.388;6.196;2023-12-20T17:37:48;46484.56;;;-145.32;100.00
14041;BME280;7095;51.388;6.196;2023-12-20T17:40:19;46147.31;;;-145.32;100.00
14041;BME280;7095;51.388;6.196;2023-12-20T17:42:47;45933.06;;;-145.32;100.00
14041;BME280;7095;51.388;6.196;2023-12-20T17:45:16;46827.78;;;-145.32;100.00
14041;BME280;7095;51.388;6.196;2023-12-20T17:47:45;46516.28;;;-145.32;100.00
14041;BME280;7095;51.388;6.196;2023-12-20T17:50:14;46637.31;;;-145.32;100.00
14041;BME280;7095;51.388;6.196;2023-12-20T17:52:43;47020.25;;;-145.32;100.00
14041;BME280;7095;51.388;6.196;2023-12-20T17:55:13;47353.63;;;-145.32;100.00
14041;BME280;7095;51.388;6.196;2023-12-20T17:57:41;47450.88;;;-145.32;100.00
14041;BME280;7095;51.388;6.196;2023-12-20T18:00:12;47655.28;;;-145.32;100.00
14041;BME280;7095;51.388;6.196;2023-12-20T18:02:41;47496.50;;;-145.32;100.00
14041;BME280;7095;51.388;6.196;2023-12-20T18:05:09;48030.41;;;-145.32;100.00
14041;BME280;7095;51.388;6.196;2023-12-20T18:07:38;48022.44;;;-145.32;100.00
14041;BME280;7095;51.388;6.196;2023-12-20T18:10:09;48242.78;;;-145.32;100.00
14041;BME280;7095;51.388;6.196;2023-12-20T18:12:39;47895.44;;;-145.32;100.00
14041;BME280;7095;51.388;6.196;2023-12-20T18:15:09;47907.34;;;-145.32;100.00
14041;BME280;7095;51.388;6.196;2023-12-20T18:17:39;47250.44;;;-145.32;100.00
14041;BME280;7095;51.388;6.196;2023-12-20T18:20:08;46645.25;;;-145.32;100.00
14041;BME280;7095;51.388;6.196;2023-12-20T18:22:37;46921.03;;;-145.32;100.00
14041;BME280;7095;51.388;6.196;2023-12-20T18:25:07;47206.78;;;-145.32;100.00
14041;BME280;7095;51.388;6.196;2023-12-20T18:27:36;47254.41;;;-145.32;100.00
14041;BME280;7095;51.388;6.196;2023-12-20T18:30:07;47270.28;;;-145.32;100.00
14041;BME280;7095;51.388;6.196;2023-12-20T18:32:43;47125.44;;;-145.32;100.00
14041;BME280;7095;51.388;6.196;2023-12-20T18:35:12;46425.03;;;-145.32;100.00
14041;BME280;7095;51.388;6.196;2023-12-20T18:37:41;46429.00;;;-145.32;100.00
14041;BME280;7095;51.388;6.196;2023-12-20T18:40:11;46169.13;;;-145.32;100.00
14041;BME280;7095;51.388;6.196;2023-12-20T18:42:39;46016.38;;;-145.32;100.00
14041;BME280;7095;51.388;6.196;2023-12-20T18:45:10;46419.09;;;-145.32;100.00
14041;BME280;7095;51.388;6.196;2023-12-20T18:47:39;46427.03;;;-145.32;100.00
14041;BME280;7095;51.388;6.196;2023-12-20T18:50:08;46722.63;;;-145.32;100.00
14041;BME280;7095;51.388;6.196;2023-12-20T18:52:37;46637.31;;;-145.32;100.00
14041;BME280;7095;51.388;6.196;2023-12-20T18:55:06;46996.44;;;-145.32;100.00
14041;BME280;7095;51.388;6.196;2023-12-20T18:57:34;46734.53;;;-145.32;100.00
14041;BME280;7095;51.388;6.196;2023-12-20T19:00:05;47117.50;;;-145.32;100.00
14041;BME280;7095;51.388;6.196;2023-12-20T19:02:35;46956.75;;;-145.32;100.00
14041;BME280;7095;51.388;6.196;2023-12-20T19:05:05;47492.53;;;-145.32;100.00
14041;BME280;7095;51.388;6.196;2023-12-20T19:07:34;47458.81;;;-145.32;100.00
14041;BME280;7095;51.388;6.196;2023-12-20T19:10:03;47589.78;;;-145.32;100.00
14041;BME280;7095;51.388;6.196;2023-12-20T19:12:31;47512.38;;;-145.32;100.00
14041;BME280;7095;51.388;6.196;2023-12-20T19:15:00;47153.22;;;-145.32;100.00
14041;BME280;7095;51.388;6.196;2023-12-20T19:17:29;47264.34;;;-145.32;100.00
14041;BME280;7095;51.388;6.196;2023-12-20T19:19:59;47292.13;;;-145.32;100.00
14041;BME280;7095;51.388;6.196;2023-12-20T19:22:28;47458.81;;;-145.32;100.00
14041;BME280;7095;51.388;6.196;2023-12-20T19:24:59;47480.63;;;-145.32;100.00
14041;BME280;7095;51.388;6.196;2023-12-20T19:27:33;47702.91;;;-145.32;100.00
14041;BME280;7095;51.388;6.196;2023-12-20T19:30:02;47198.84;;;-145.32;100.00
14041;BME280;7095;51.388;6.196;2023-12-20T19:32:32;47184.97;;;-145.32;100.00
14041;BME280;7095;51.388;6.196;2023-12-20T19:35:02;47494.53;;;-145.32;100.00
14041;BME280;7095;51.388;6.196;2023-12-20T19:37:31;47627.50;;;-145.32;100.00
14041;BME280;7095;51.388;6.196;2023-12-20T19:40:00;47627.50;;;-145.32;100.00
14041;BME280;7095;51.388;6.196;2023-12-20T19:42:29;47504.44;;;-145.32;100.00
14041;BME280;7095;51.388;6.196;2023-12-20T19:45:01;46756.38;;;-145.32;100.00
14041;BME280;7095;51.388;6.196;2023-12-20T19:47:30;45758.50;;;-145.32;100.00
14041;BME280;7095;51.388;6.196;2023-12-20T19:49:59;44885.88;;;-145.32;100.00
14041;BME280;7095;51.388;6.196;2023-12-20T19:52:30;43718.09;;;-145.32;100.00
14041;BME280;7095;51.388;6.196;2023-12-20T19:54:59;42923.28;;;-145.32;100.00
14041;BME280;7095;51.388;6.196;2023-12-20T19:57:28;41617.50;;;-145.32;100.00
14041;BME280;7095;51.388;6.196;2023-12-20T19:59:57;40027.06;;;-145.32;100.00
14041;BME280;7095;51.388;6.196;2023-12-20T20:02:38;39272.72;;;-145.32;100.00
14041;BME280;7095;51.388;6.196;2023-12-20T20:05:07;39167.81;;;-145.32;100.00
14041;BME280;7095;51.388;6.196;2023-12-20T20:07:38;39478.63;;;-145.32;100.00
14041;BME280;7095;51.388;6.196;2023-12-20T20:10:07;39543.97;;;-145.32;100.00
14041;BME280;7095;51.388;6.196;2023-12-20T20:12:37;39191.56;;;-145.32;100.00
14041;BME280;7095;51.388;6.196;2023-12-20T20:15:07;39041.13;;;-145.32;100.00
14041;BME280;7095;51.388;6.196;2023-12-20T20:17:36;38067.31;;;-145.32;100.00
14041;BME280;7095;51.388;6.196;2023-12-20T20:20:07;37669.56;;;-145.32;100.00
14041;BME280;7095;51.388;6.196;2023-12-20T20:22:38;38726.38;;;-145.32;100.00
14041;BME280;7095;51.388;6.196;2023-12-20T20:25:07;39254.91;;;-145.32;100.00
14041;BME280;7095;51.388;6.196;2023-12-20T20:27:36;39286.59;;;-145.32;100.00
14041;BME280;7095;51.388;6.196;2023-12-20T20:30:07;38900.56;;;-145.32;100.00
14041;BME280;7095;51.388;6.196;2023-12-20T20:32:36;38197.94;;;-145.32;100.00
14041;BME280;7095;51.388;6.196;2023-12-20T20:35:06;37903.06;;;-145.32;100.00
14041;BME280;7095;51.388;6.196;2023-12-20T20:37:34;37279.78;;;-145.32;100.00
14041;BME280;7095;51.388;6.196;2023-12-20T20:40:05;37635.94;;;-145.32;100.00
14041;BME280;7095;51.388;6.196;2023-12-20T20:42:34;37212.50;;;-145.32;100.00
14041;BME280;7095;51.388;6.196;2023-12-20T20:45:03;37040.38;;;-145.32;100.00
14041;BME280;7095;51.388;6.196;2023-12-20T20:47:32;36949.38;;;-145.32;100.00
14041;BME280;7095;51.388;6.196;2023-12-20T20:50:01;37222.41;;;-145.32;100.00
14041;BME280;7095;51.388;6.196;2023-12-20T20:52:30;37000.81;;;-145.32;100.00
14041;BME280;7095;51.388;6.196;2023-12-20T20:54:58;36818.81;;;-145.32;100.00
14041;BME280;7095;51.388;6.196;2023-12-20T20:57:29;36806.94;;;-145.32;100.00
14041;BME280;7095;51.388;6.196;2023-12-20T20:59:57;36239.25;;;-145.32;100.00
14041;BME280;7095;51.388;6.196;2023-12-20T21:02:29;36876.19;;;-145.32;100.00
14041;BME280;7095;51.388;6.196;2023-12-20T21:04:58;37891.19;;;-145.32;100.00
14041;BME280;7095;51.388;6.196;2023-12-20T21:07:31;37477.63;;;-145.32;100.00
14041;BME280;7095;51.388;6.196;2023-12-20T21:10:00;37869.44;;;-145.32;100.00
14041;BME280;7095;51.388;6.196;2023-12-20T21:12:30;38748.16;;;-145.32;100.00
14041;BME280;7095;51.388;6.196;2023-12-20T21:14:59;38279.06;;;-145.32;100.00
14041;BME280;7095;51.388;6.196;2023-12-20T21:17:27;39833.03;;;-145.32;100.00
14041;BME280;7095;51.388;6.196;2023-12-20T21:19:56;39688.50;;;-145.32;100.00
14041;BME280;7095;51.388;6.196;2023-12-20T21:22:25;40872.69;;;-145.32;100.00
14041;BME280;7095;51.388;6.196;2023-12-20T21:24:56;41011.34;;;-145.32;100.00
14041;BME280;7095;51.388;6.196;2023-12-20T21:27:25;41318.38;;;-145.32;100.00
14041;BME280;7095;51.388;6.196;2023-12-20T21:29:55;41354.03;;;-145.32;100.00
14041;BME280;7095;51.388;6.196;2023-12-20T21:32:24;42289.16;;;-145.32;100.00
14041;BME280;7095;51.388;6.196;2023-12-20T21:34:52;42711.22;;;-145.32;100.00
14041;BME280;7095;51.388;6.196;2023-12-20T21:37:21;43212.66;;;-145.32;100.00
14041;BME280;7095;51.388;6.196;2023-12-20T21:39:50;43367.25;;;-145.32;100.00
14041;BME280;7095;51.388;6.196;2023-12-20T21:42:19;43813.25;;;-145.32;100.00
14041;BME280;7095;51.388;6.196;2023-12-20T21:44:47;44178.03;;;-145.32;100.00
14041;BME280;7095;51.388;6.196;2023-12-20T21:47:18;44219.66;;;-145.32;100.00
14041;BME280;7095;51.388;6.196;2023-12-20T21:49:46;43779.53;;;-145.32;100.00
14041;BME280;7095;51.388;6.196;2023-12-20T21:52:15;42859.88;;;-145.32;100.00
14041;BME280;7095;51.388;6.196;2023-12-20T21:54:45;42423.91;;;-145.32;100.00
14041;BME280;7095;51.388;6.196;2023-12-20T21:57:14;41033.13;;;-145.32;100.00
14041;BME280;7095;51.388;6.196;2023-12-20T21:59:43;39631.06;;;-145.32;100.00
14041;BME280;7095;51.388;6.196;2023-12-20T22:02:12;38091.06;;;-145.32;100.00
14041;BME280;7095;51.388;6.196;2023-12-20T22:04:43;35566.81;;;-145.32;100.00
14041;BME280;7095;51.388;6.196;2023-12-20T22:07:11;33921.94;;;-145.32;100.00
14041;BME280;7095;51.388;6.196;2023-12-20T22:09:41;32382.56;;;-145.32;100.00
14041;BME280;7095;51.388;6.196;2023-12-20T22:12:09;30508.22;;;-145.32;100.00
14041;BME280;7095;51.388;6.196;2023-12-20T22:14:38;28486.94;;;-145.32;100.00
14041;BME280;7095;51.388;6.196;2023-12-20T22:17:07;26971.78;;;-145.32;100.00
14041;BME280;7095;51.388;6.196;2023-12-20T22:19:35;24952.63;;;-145.32;100.00
14041;BME280;7095;51.388;6.196;2023-12-20T22:22:06;24700.31;;;-145.32;100.00
14041;BME280;7095;51.388;6.196;2023-12-20T22:24:34;22934.69;;;-145.32;100.00
14041;BME280;7095;51.388;6.196;2023-12-20T22:27:03;22178.28;;;-145.32;100.00
14041;BME280;7095;51.388;6.196;2023-12-20T22:29:33;21926.19;;;-145.32;100.00
14041;BME280;7095;51.388;6.196;2023-12-20T22:32:03;21170.03;;;-145.32;100.00
14041;BME280;7095;51.388;6.196;2023-12-20T22:34:35;20162.06;;;-145.32;100.00
14041;BME280;7095;51.388;6.196;2023-12-20T22:37:04;19658.19;;;-145.32;100.00
14041;BME280;7095;51.388;6.196;2023-12-20T22:39:33;19406.28;;;-145.32;100.00
14041;BME280;7095;51.388;6.196;2023-12-20T22:42:03;18902.53;;;-145.32;100.00
14041;BME280;7095;51.388;6.196;2023-12-20T22:44:32;18650.66;;;-145.32;100.00
14041;BME280;7095;51.388;6.196;2023-12-20T22:47:00;18147.03;;;-145.32;100.00
14041;BME280;7095;51.388;6.196;2023-12-20T22:49:29;17895.25;;;-145.32;100.00
14041;BME280;7095;51.388;6.196;2023-12-20T22:51:59;17643.47;;;-145.32;100.00
14041;BME280;7095;51.388;6.196;2023-12-20T22:54:27;17391.72;;;-145.32;100.00
14041;BME280;7095;51.388;6.196;2023-12-20T22:56:57;17139.97;;;-145.32;100.00
14041;BME280;7095;51.388;6.196;2023-12-20T22:59:26;16888.25;;;-145.32;100.00
14041;BME280;7095;51.388;6.196;2023-12-20T23:01:55;16133.22;;;-145.32;100.00
14041;BME280;7095;51.388;6.196;2023-12-20T23:04:24;16133.22;;;-145.32;100.00
14041;BME280;7095;51.388;6.196;2023-12-20T23:06:52;16384.91;;;-145.32;100.00
14041;BME280;7095;51.388;6.196;2023-12-20T23:09:24;16384.91;;;-145.32;100.00
14041;BME280;7095;51.388;6.196;2023-12-20T23:11:52;16133.22;;;-145.32;100.00
14041;BME280;7095;51.388;6.196;2023-12-20T23:14:22;16636.56;;;-145.32;100.00
14041;BME280;7095;51.388;6.196;2023-12-20T23:16:51;16384.91;;;-145.32;100.00
14041;BME280;7095;51.388;6.196;2023-12-20T23:19:19;16133.22;;;-145.32;100.00
14041;BME280;7095;51.388;6.196;2023-12-20T23:21:48;15881.59;;;-145.32;100.00
14041;BME280;7095;51.388;6.196;2023-12-20T23:24:18;15881.59;;;-145.32;100.00
14041;BME280;7095;51.388;6.196;2023-12-20T23:26:47;15881.59;;;-145.32;100.00
14041;BME280;7095;51.388;6.196;2023-12-20T23:29:15;15629.97;;;-145.32;100.00
14041;BME280;7095;51.388;6.196;2023-12-20T23:31:45;15881.59;;;-145.32;100.00
14041;BME280;7095;51.388;6.196;2023-12-20T23:34:14;15629.97;;;-145.32;100.00
14041;BME280;7095;51.388;6.196;2023-12-20T23:36:44;15881.59;;;-145.32;100.00
14041;BME280;7095;51.388;6.196;2023-12-20T23:39:13;15378.38;;;-145.32;100.00
14041;BME280;7095;51.388;6.196;2023-12-20T23:41:42;14875.22;;;-145.32;100.00
14041;BME280;7095;51.388;6.196;2023-12-20T23:44:13;14372.16;;;-145.32;100.00
14041;BME280;7095;51.388;6.196;2023-12-20T23:46:42;13366.25;;;-145.32;100.00
14041;BME280;7095;51.388;6.196;2023-12-20T23:49:12;13114.84;;;-145.32;100.00
14041;BME280;7095;51.388;6.196;2023-12-20T23:51:41;13114.84;;;-145.32;100.00
14041;BME280;7095;51.388;6.196;2023-12-20T23:54:09;12360.66;;;-145.32;100.00
14041;BME280;7095;51.388;6.196;2023-12-20T23:56:38;12109.31;;;-145.32;100.00
14041;BME280;7095;51.388;6.196;2023-12-20T23:59:07;11857.97;;;-145.32;100.00
